sensor_id;sensor_type;location;lat;lon;timestamp;temperature;humidity
19862;DHT22;10093;48.148;8.542;2024-01-30T00:01:52;-1.10;99.90
19862;DHT22;10093;48.148;8.542;2024-01-30T00:04:17;-1.10;99.90
19862;DHT22;10093;48.148;8.542;2024-01-30T00:06:46;-1.20;99.90
19862;DHT22;10093;48.148;8.542;2024-01-30T00:09:11;-1.20;99.90
19862;DHT22;10093;48.148;8.542;2024-01-30T00:11:37;-1.10;99.90
19862;DHT22;10093;48.148;8.542;2024-01-30T00:14:04;-1.20;99.90
19862;DHT22;10093;48.148;8.542;2024-01-30T00:16:29;-1.10;99.90
19862;DHT22;10093;48.148;8.542;2024-01-30T00:18:55;-1.10;99.90
19862;DHT22;10093;48.148;8.542;2024-01-30T00:21:21;-1.10;99.90
19862;DHT22;10093;48.148;8.542;2024-01-30T00:23:47;-0.90;99.90
19862;DHT22;10093;48.148;8.542;2024-01-30T00:26:13;-0.80;99.90
19862;DHT22;10093;48.148;8.542;2024-01-30T00:28:43;-0.90;99.90
19862;DHT22;10093;48.148;8.542;2024-01-30T00:31:08;-1.10;99.90
19862;DHT22;10093;48.148;8.542;2024-01-30T00:33:41;-1.00;99.90
19862;DHT22;10093;48.148;8.542;2024-01-30T00:36:08;-0.90;99.90
19862;DHT22;10093;48.148;8.542;2024-01-30T00:38:34;-0.60;99.90
19862;DHT22;10093;48.148;8.542;2024-01-30T00:41:00;-0.80;99.90
19862;DHT22;10093;48.148;8.542;2024-01-30T00:43:27;-1.00;99.90
19862;DHT22;10093;48.148;8.542;2024-01-30T00:45:53;-1.10;99.90
19862;DHT22;10093;48.148;8.542;2024-01-30T00:48:19;-0.80;99.90
19862;DHT22;10093;48.148;8.542;2024-01-30T00:50:45;-0.80;99.90
19862;DHT22;10093;48.148;8.542;2024-01-30T00:53:11;-1.00;99.90
19862;DHT22;10093;48.148;8.542;2024-01-30T00:55:36;-1.10;99.90
19862;DHT22;10093;48.148;8.542;2024-01-30T00:58:02;-1.10;99.90
19862;DHT22;10093;48.148;8.542;2024-01-30T01:00:28;-1.30;99.90
19862;DHT22;10093;48.148;8.542;2024-01-30T01:02:55;-1.20;99.90
19862;DHT22;10093;48.148;8.542;2024-01-30T01:05:21;-1.30;99.90
19862;DHT22;10093;48.148;8.542;2024-01-30T01:07:46;-1.40;99.90
19862;DHT22;10093;48.148;8.542;2024-01-30T01:10:13;-1.60;99.90
19862;DHT22;10093;48.148;8.542;2024-01-30T01:12:39;-1.40;99.90
19862;DHT22;10093;48.148;8.542;2024-01-30T01:15:06;-1.10;99.90
19862;DHT22;10093;48.148;8.542;2024-01-30T01:17:34;-1.10;99.90
19862;DHT22;10093;48.148;8.542;2024-01-30T01:20:00;-0.80;99.90
19862;DHT22;10093;48.148;8.542;2024-01-30T01:22:25;-1.00;99.90
19862;DHT22;10093;48.148;8.542;2024-01-30T01:24:51;-1.10;99.90
19862;DHT22;10093;48.148;8.542;2024-01-30T01:27:17;-1.20;99.90
19862;DHT22;10093;48.148;8.542;2024-01-30T01:29:42;-1.20;99.90
19862;DHT22;10093;48.148;8.542;2024-01-30T01:32:08;-1.20;99.90
19862;DHT22;10093;48.148;8.542;2024-01-30T01:34:34;-1.50;99.90
19862;DHT22;10093;48.148;8.542;2024-01-30T01:36:59;-1.20;99.90
19862;DHT22;10093;48.148;8.542;2024-01-30T01:39:25;-1.30;99.90
19862;DHT22;10093;48.148;8.542;2024-01-30T01:41:51;-1.30;99.90
19862;DHT22;10093;48.148;8.542;2024-01-30T01:44:17;-1.30;99.90
19862;DHT22;10093;48.148;8.542;2024-01-30T01:46:44;-1.40;99.90
19862;DHT22;10093;48.148;8.542;2024-01-30T01:49:09;-1.40;99.90
19862;DHT22;10093;48.148;8.542;2024-01-30T01:51:36;-1.20;99.90
19862;DHT22;10093;48.148;8.542;2024-01-30T01:54:03;-1.00;99.90
19862;DHT22;10093;48.148;8.542;2024-01-30T01:56:31;-0.90;99.90
19862;DHT22;10093;48.148;8.542;2024-01-30T01:59:00;-1.10;99.90
19862;DHT22;10093;48.148;8.542;2024-01-30T02:01:29;-1.20;99.90
19862;DHT22;10093;48.148;8.542;2024-01-30T02:03:55;-1.40;99.90
19862;DHT22;10093;48.148;8.542;2024-01-30T02:08:56;-1.70;99.90
19862;DHT22;10093;48.148;8.542;2024-01-30T02:11:22;-1.60;99.90
19862;DHT22;10093;48.148;8.542;2024-01-30T02:13:49;-1.50;99.90
19862;DHT22;10093;48.148;8.542;2024-01-30T02:16:15;-1.70;99.90
19862;DHT22;10093;48.148;8.542;2024-01-30T02:18:42;-1.60;99.90
19862;DHT22;10093;48.148;8.542;2024-01-30T02:21:11;-1.50;99.90
19862;DHT22;10093;48.148;8.542;2024-01-30T02:23:36;-1.30;99.90
19862;DHT22;10093;48.148;8.542;2024-01-30T02:26:03;-1.40;99.90
19862;DHT22;10093;48.148;8.542;2024-01-30T02:28:29;-1.50;99.90
19862;DHT22;10093;48.148;8.542;2024-01-30T02:30:54;-1.60;99.90
19862;DHT22;10093;48.148;8.542;2024-01-30T02:33:20;-1.70;99.90
19862;DHT22;10093;48.148;8.542;2024-01-30T02:35:47;-1.80;99.90
19862;DHT22;10093;48.148;8.542;2024-01-30T02:38:13;-1.80;99.90
19862;DHT22;10093;48.148;8.542;2024-01-30T02:40:38;-1.90;99.90
19862;DHT22;10093;48.148;8.542;2024-01-30T02:43:05;-1.80;99.90
19862;DHT22;10093;48.148;8.542;2024-01-30T02:45:30;-1.90;99.90
19862;DHT22;10093;48.148;8.542;2024-01-30T02:47:57;-1.80;99.90
19862;DHT22;10093;48.148;8.542;2024-01-30T02:50:22;-1.70;99.90
19862;DHT22;10093;48.148;8.542;2024-01-30T02:52:48;-1.70;99.90
19862;DHT22;10093;48.148;8.542;2024-01-30T02:55:14;-1.70;99.90
19862;DHT22;10093;48.148;8.542;2024-01-30T02:57:39;-1.80;99.90
19862;DHT22;10093;48.148;8.542;2024-01-30T03:00:05;-1.40;99.90
19862;DHT22;10093;48.148;8.542;2024-01-30T03:02:32;-1.30;99.90
19862;DHT22;10093;48.148;8.542;2024-01-30T03:04:59;-1.10;99.90
19862;DHT22;10093;48.148;8.542;2024-01-30T03:07:25;-1.20;99.90
19862;DHT22;10093;48.148;8.542;2024-01-30T03:09:50;-1.30;99.90
19862;DHT22;10093;48.148;8.542;2024-01-30T03:12:16;-1.50;99.90
19862;DHT22;10093;48.148;8.542;2024-01-30T03:14:41;-1.50;99.90
19862;DHT22;10093;48.148;8.542;2024-01-30T03:17:07;-1.60;99.90
19862;DHT22;10093;48.148;8.542;2024-01-30T03:19:33;-1.50;99.90
19862;DHT22;10093;48.148;8.542;2024-01-30T03:21:59;-1.60;99.90
19862;DHT22;10093;48.148;8.542;2024-01-30T03:24:24;-1.60;99.90
19862;DHT22;10093;48.148;8.542;2024-01-30T03:26:50;-1.50;99.90
19862;DHT22;10093;48.148;8.542;2024-01-30T03:29:16;-1.60;99.90
19862;DHT22;10093;48.148;8.542;2024-01-30T03:31:41;-1.50;99.90
19862;DHT22;10093;48.148;8.542;2024-01-30T03:34:07;-1.60;99.90
19862;DHT22;10093;48.148;8.542;2024-01-30T03:36:32;-1.70;99.90
19862;DHT22;10093;48.148;8.542;2024-01-30T03:39:00;-1.70;99.90
19862;DHT22;10093;48.148;8.542;2024-01-30T03:41:25;-1.60;99.90
19862;DHT22;10093;48.148;8.542;2024-01-30T03:43:51;-1.50;99.90
19862;DHT22;10093;48.148;8.542;2024-01-30T03:46:17;-1.20;99.90
19862;DHT22;10093;48.148;8.542;2024-01-30T03:48:43;-1.40;99.90
19862;DHT22;10093;48.148;8.542;2024-01-30T03:51:08;-1.50;99.90
19862;DHT22;10093;48.148;8.542;2024-01-30T03:53:42;-1.50;99.90
19862;DHT22;10093;48.148;8.542;2024-01-30T03:56:08;-1.60;99.90
19862;DHT22;10093;48.148;8.542;2024-01-30T03:58:34;-1.70;99.90
19862;DHT22;10093;48.148;8.542;2024-01-30T04:01:00;-1.70;99.90
19862;DHT22;10093;48.148;8.542;2024-01-30T04:03:26;-1.80;99.90
19862;DHT22;10093;48.148;8.542;2024-01-30T04:05:52;-1.70;99.90
19862;DHT22;10093;48.148;8.542;2024-01-30T04:08:18;-1.80;99.90
19862;DHT22;10093;48.148;8.542;2024-01-30T04:10:44;-1.80;99.90
19862;DHT22;10093;48.148;8.542;2024-01-30T04:13:10;-1.80;99.90
19862;DHT22;10093;48.148;8.542;2024-01-30T04:15:35;-1.80;99.90
19862;DHT22;10093;48.148;8.542;2024-01-30T04:18:01;-1.80;99.90
19862;DHT22;10093;48.148;8.542;2024-01-30T04:20:26;-1.90;99.90
19862;DHT22;10093;48.148;8.542;2024-01-30T04:22:52;-1.80;99.90
19862;DHT22;10093;48.148;8.542;2024-01-30T04:25:18;-2.00;99.90
19862;DHT22;10093;48.148;8.542;2024-01-30T04:27:43;-1.90;99.90
19862;DHT22;10093;48.148;8.542;2024-01-30T04:30:09;-2.10;99.90
19862;DHT22;10093;48.148;8.542;2024-01-30T04:32:36;-2.00;99.90
19862;DHT22;10093;48.148;8.542;2024-01-30T04:35:02;-2.10;99.90
19862;DHT22;10093;48.148;8.542;2024-01-30T04:37:27;-1.90;99.90
19862;DHT22;10093;48.148;8.542;2024-01-30T04:39:53;-2.00;99.90
19862;DHT22;10093;48.148;8.542;2024-01-30T04:42:19;-2.00;99.90
19862;DHT22;10093;48.148;8.542;2024-01-30T04:44:45;-2.00;99.90
19862;DHT22;10093;48.148;8.542;2024-01-30T04:47:10;-1.90;99.90
19862;DHT22;10093;48.148;8.542;2024-01-30T04:49:38;-2.00;99.90
19862;DHT22;10093;48.148;8.542;2024-01-30T04:52:05;-1.80;99.90
19862;DHT22;10093;48.148;8.542;2024-01-30T04:54:31;-1.50;99.90
19862;DHT22;10093;48.148;8.542;2024-01-30T04:56:57;-1.50;99.90
19862;DHT22;10093;48.148;8.542;2024-01-30T04:59:22;-1.40;99.90
19862;DHT22;10093;48.148;8.542;2024-01-30T05:01:48;-1.50;99.90
19862;DHT22;10093;48.148;8.542;2024-01-30T05:04:13;-1.30;99.90
19862;DHT22;10093;48.148;8.542;2024-01-30T05:06:39;-1.20;99.90
19862;DHT22;10093;48.148;8.542;2024-01-30T05:09:05;-1.20;99.90
19862;DHT22;10093;48.148;8.542;2024-01-30T05:11:30;-1.20;99.90
19862;DHT22;10093;48.148;8.542;2024-01-30T05:13:56;-1.10;99.90
19862;DHT22;10093;48.148;8.542;2024-01-30T05:16:22;-0.90;99.90
19862;DHT22;10093;48.148;8.542;2024-01-30T05:18:47;-0.90;99.90
19862;DHT22;10093;48.148;8.542;2024-01-30T05:21:13;-0.90;99.90
19862;DHT22;10093;48.148;8.542;2024-01-30T05:23:48;-0.70;99.90
19862;DHT22;10093;48.148;8.542;2024-01-30T05:26:13;-0.70;99.90
19862;DHT22;10093;48.148;8.542;2024-01-30T05:28:39;-0.50;99.90
19862;DHT22;10093;48.148;8.542;2024-01-30T05:31:05;-0.60;99.90
19862;DHT22;10093;48.148;8.542;2024-01-30T05:33:30;-0.50;99.90
19862;DHT22;10093;48.148;8.542;2024-01-30T05:35:56;-0.40;99.90
19862;DHT22;10093;48.148;8.542;2024-01-30T05:38:21;-0.60;99.90
19862;DHT22;10093;48.148;8.542;2024-01-30T05:40:47;-1.00;99.90
19862;DHT22;10093;48.148;8.542;2024-01-30T05:43:13;-1.30;99.90
19862;DHT22;10093;48.148;8.542;2024-01-30T05:45:38;-1.40;99.90
19862;DHT22;10093;48.148;8.542;2024-01-30T05:48:07;-1.50;99.90
19862;DHT22;10093;48.148;8.542;2024-01-30T05:50:33;-1.30;99.90
19862;DHT22;10093;48.148;8.542;2024-01-30T05:52:58;-0.90;99.90
19862;DHT22;10093;48.148;8.542;2024-01-30T05:55:24;-0.50;99.90
19862;DHT22;10093;48.148;8.542;2024-01-30T05:57:50;-0.20;99.90
19862;DHT22;10093;48.148;8.542;2024-01-30T06:00:17;0.20;99.90
19862;DHT22;10093;48.148;8.542;2024-01-30T06:02:43;0.10;99.90
19862;DHT22;10093;48.148;8.542;2024-01-30T06:05:09;0.20;99.90
19862;DHT22;10093;48.148;8.542;2024-01-30T06:07:34;0.30;99.90
19862;DHT22;10093;48.148;8.542;2024-01-30T06:10:00;0.40;99.90
19862;DHT22;10093;48.148;8.542;2024-01-30T06:12:27;0.50;99.90
19862;DHT22;10093;48.148;8.542;2024-01-30T06:14:53;0.60;99.90
19862;DHT22;10093;48.148;8.542;2024-01-30T06:17:25;0.50;99.90
19862;DHT22;10093;48.148;8.542;2024-01-30T06:19:50;0.80;99.90
19862;DHT22;10093;48.148;8.542;2024-01-30T06:22:16;0.80;99.90
19862;DHT22;10093;48.148;8.542;2024-01-30T06:24:42;0.90;99.90
19862;DHT22;10093;48.148;8.542;2024-01-30T06:27:10;0.80;99.90
19862;DHT22;10093;48.148;8.542;2024-01-30T06:29:36;0.50;99.90
19862;DHT22;10093;48.148;8.542;2024-01-30T06:32:02;0.50;99.90
19862;DHT22;10093;48.148;8.542;2024-01-30T06:34:27;0.50;99.90
19862;DHT22;10093;48.148;8.542;2024-01-30T06:36:53;0.50;99.90
19862;DHT22;10093;48.148;8.542;2024-01-30T06:39:18;0.50;99.90
19862;DHT22;10093;48.148;8.542;2024-01-30T06:41:44;0.20;99.90
19862;DHT22;10093;48.148;8.542;2024-01-30T06:44:12;0.30;99.90
19862;DHT22;10093;48.148;8.542;2024-01-30T06:46:38;0.20;99.90
19862;DHT22;10093;48.148;8.542;2024-01-30T06:49:04;0.10;99.90
19862;DHT22;10093;48.148;8.542;2024-01-30T06:51:31;0.00;99.90
19862;DHT22;10093;48.148;8.542;2024-01-30T06:53:57;-0.20;99.90
19862;DHT22;10093;48.148;8.542;2024-01-30T06:56:22;-0.20;99.90
19862;DHT22;10093;48.148;8.542;2024-01-30T06:58:48;-0.30;99.90
19862;DHT22;10093;48.148;8.542;2024-01-30T07:01:14;-0.60;99.90
19862;DHT22;10093;48.148;8.542;2024-01-30T07:03:40;-0.50;99.90
19862;DHT22;10093;48.148;8.542;2024-01-30T07:06:06;-0.50;99.90
19862;DHT22;10093;48.148;8.542;2024-01-30T07:08:31;-0.50;99.90
19862;DHT22;10093;48.148;8.542;2024-01-30T07:10:57;-0.50;99.90
19862;DHT22;10093;48.148;8.542;2024-01-30T07:13:23;-0.30;99.90
19862;DHT22;10093;48.148;8.542;2024-01-30T07:15:48;0.00;99.90
19862;DHT22;10093;48.148;8.542;2024-01-30T07:18:14;0.40;99.90
19862;DHT22;10093;48.148;8.542;2024-01-30T07:20:39;0.70;99.90
19862;DHT22;10093;48.148;8.542;2024-01-30T07:23:14;1.00;99.90
19862;DHT22;10093;48.148;8.542;2024-01-30T07:25:42;1.10;99.90
19862;DHT22;10093;48.148;8.542;2024-01-30T07:28:08;1.00;99.90
19862;DHT22;10093;48.148;8.542;2024-01-30T07:30:37;0.90;99.90
19862;DHT22;10093;48.148;8.542;2024-01-30T07:33:03;0.70;99.90
19862;DHT22;10093;48.148;8.542;2024-01-30T07:35:29;0.70;99.90
19862;DHT22;10093;48.148;8.542;2024-01-30T07:37:54;0.80;99.90
19862;DHT22;10093;48.148;8.542;2024-01-30T07:40:20;1.00;99.90
19862;DHT22;10093;48.148;8.542;2024-01-30T07:42:46;1.10;99.90
19862;DHT22;10093;48.148;8.542;2024-01-30T07:45:11;1.10;99.90
19862;DHT22;10093;48.148;8.542;2024-01-30T07:47:37;1.20;99.90
19862;DHT22;10093;48.148;8.542;2024-01-30T07:50:03;1.10;99.90
19862;DHT22;10093;48.148;8.542;2024-01-30T07:52:29;1.10;99.90
19862;DHT22;10093;48.148;8.542;2024-01-30T07:54:54;1.20;99.90
19862;DHT22;10093;48.148;8.542;2024-01-30T07:57:20;1.20;99.90
19862;DHT22;10093;48.148;8.542;2024-01-30T07:59:46;1.20;99.90
19862;DHT22;10093;48.148;8.542;2024-01-30T08:02:12;1.30;99.90
19862;DHT22;10093;48.148;8.542;2024-01-30T08:04:38;1.30;99.90
19862;DHT22;10093;48.148;8.542;2024-01-30T08:07:04;1.60;99.90
19862;DHT22;10093;48.148;8.542;2024-01-30T08:09:29;2.10;99.90
19862;DHT22;10093;48.148;8.542;2024-01-30T08:11:55;2.40;99.90
19862;DHT22;10093;48.148;8.542;2024-01-30T08:14:21;3.00;99.90
19862;DHT22;10093;48.148;8.542;2024-01-30T08:16:46;3.50;99.90
19862;DHT22;10093;48.148;8.542;2024-01-30T08:19:12;4.40;99.90
19862;DHT22;10093;48.148;8.542;2024-01-30T08:21:37;5.30;99.90
19862;DHT22;10093;48.148;8.542;2024-01-30T08:24:04;5.90;99.90
19862;DHT22;10093;48.148;8.542;2024-01-30T08:26:30;6.30;99.90
19862;DHT22;10093;48.148;8.542;2024-01-30T08:28:56;6.60;99.90
19862;DHT22;10093;48.148;8.542;2024-01-30T08:31:21;7.60;99.90
19862;DHT22;10093;48.148;8.542;2024-01-30T08:33:47;8.90;99.90
19862;DHT22;10093;48.148;8.542;2024-01-30T08:36:12;10.20;99.90
19862;DHT22;10093;48.148;8.542;2024-01-30T08:38:38;11.20;99.90
19862;DHT22;10093;48.148;8.542;2024-01-30T08:41:04;11.90;99.90
19862;DHT22;10093;48.148;8.542;2024-01-30T08:43:30;12.40;99.90
19862;DHT22;10093;48.148;8.542;2024-01-30T08:45:59;11.60;99.90
19862;DHT22;10093;48.148;8.542;2024-01-30T08:48:25;11.10;99.90
19862;DHT22;10093;48.148;8.542;2024-01-30T08:50:51;11.50;99.90
19862;DHT22;10093;48.148;8.542;2024-01-30T08:53:16;11.80;99.90
19862;DHT22;10093;48.148;8.542;2024-01-30T08:55:42;11.80;99.90
19862;DHT22;10093;48.148;8.542;2024-01-30T08:58:08;12.10;99.90
19862;DHT22;10093;48.148;8.542;2024-01-30T09:00:33;11.90;99.90
19862;DHT22;10093;48.148;8.542;2024-01-30T09:02:59;12.20;99.90
19862;DHT22;10093;48.148;8.542;2024-01-30T09:05:24;12.00;99.90
19862;DHT22;10093;48.148;8.542;2024-01-30T09:07:50;12.90;99.90
19862;DHT22;10093;48.148;8.542;2024-01-30T09:10:16;13.50;99.90
19862;DHT22;10093;48.148;8.542;2024-01-30T09:12:41;13.10;99.90
19862;DHT22;10093;48.148;8.542;2024-01-30T09:15:08;14.40;99.90
19862;DHT22;10093;48.148;8.542;2024-01-30T09:17:34;15.20;99.90
19862;DHT22;10093;48.148;8.542;2024-01-30T09:19:59;16.30;99.90
19862;DHT22;10093;48.148;8.542;2024-01-30T09:22:25;16.90;99.90
19862;DHT22;10093;48.148;8.542;2024-01-30T09:24:51;15.70;99.90
19862;DHT22;10093;48.148;8.542;2024-01-30T09:27:16;16.30;99.90
19862;DHT22;10093;48.148;8.542;2024-01-30T09:29:42;16.70;99.90
19862;DHT22;10093;48.148;8.542;2024-01-30T09:32:07;16.20;99.90
19862;DHT22;10093;48.148;8.542;2024-01-30T09:34:34;15.40;99.90
19862;DHT22;10093;48.148;8.542;2024-01-30T09:37:00;15.00;99.90
19862;DHT22;10093;48.148;8.542;2024-01-30T09:39:25;14.60;99.90
19862;DHT22;10093;48.148;8.542;2024-01-30T09:42:02;14.30;99.90
19862;DHT22;10093;48.148;8.542;2024-01-30T09:44:30;13.20;99.90
19862;DHT22;10093;48.148;8.542;2024-01-30T09:46:56;12.30;99.90
19862;DHT22;10093;48.148;8.542;2024-01-30T09:49:30;11.90;99.90
19862;DHT22;10093;48.148;8.542;2024-01-30T09:51:57;11.80;99.90
19862;DHT22;10093;48.148;8.542;2024-01-30T09:54:23;12.10;99.90
19862;DHT22;10093;48.148;8.542;2024-01-30T09:56:49;12.40;99.90
19862;DHT22;10093;48.148;8.542;2024-01-30T09:59:15;12.10;99.90
19862;DHT22;10093;48.148;8.542;2024-01-30T10:01:41;11.80;99.90
19862;DHT22;10093;48.148;8.542;2024-01-30T10:04:07;11.30;99.90
19862;DHT22;10093;48.148;8.542;2024-01-30T10:06:34;11.80;99.90
19862;DHT22;10093;48.148;8.542;2024-01-30T10:08:59;11.50;99.90
19862;DHT22;10093;48.148;8.542;2024-01-30T10:11:25;11.20;99.90
19862;DHT22;10093;48.148;8.542;2024-01-30T10:13:51;10.00;99.90
19862;DHT22;10093;48.148;8.542;2024-01-30T10:16:16;9.70;99.90
19862;DHT22;10093;48.148;8.542;2024-01-30T10:18:42;10.60;99.90
19862;DHT22;10093;48.148;8.542;2024-01-30T10:21:08;11.20;99.90
19862;DHT22;10093;48.148;8.542;2024-01-30T10:23:34;10.70;99.90
19862;DHT22;10093;48.148;8.542;2024-01-30T10:26:00;10.80;99.90
19862;DHT22;10093;48.148;8.542;2024-01-30T10:28:29;11.40;99.90
19862;DHT22;10093;48.148;8.542;2024-01-30T10:30:59;13.00;99.90
19862;DHT22;10093;48.148;8.542;2024-01-30T10:33:26;14.80;99.90
19862;DHT22;10093;48.148;8.542;2024-01-30T10:35:55;15.80;99.90
19862;DHT22;10093;48.148;8.542;2024-01-30T10:38:24;15.90;99.90
19862;DHT22;10093;48.148;8.542;2024-01-30T10:41:01;15.90;99.90
19862;DHT22;10093;48.148;8.542;2024-01-30T10:43:31;15.50;99.90
19862;DHT22;10093;48.148;8.542;2024-01-30T10:46:10;15.30;99.90
19862;DHT22;10093;48.148;8.542;2024-01-30T10:48:42;15.20;99.90
19862;DHT22;10093;48.148;8.542;2024-01-30T10:51:12;14.70;99.90
19862;DHT22;10093;48.148;8.542;2024-01-30T10:53:39;14.40;99.90
19862;DHT22;10093;48.148;8.542;2024-01-30T10:56:05;14.30;99.90
19862;DHT22;10093;48.148;8.542;2024-01-30T10:58:31;13.70;99.90
19862;DHT22;10093;48.148;8.542;2024-01-30T11:00:57;13.20;99.90
19862;DHT22;10093;48.148;8.542;2024-01-30T11:03:24;12.60;99.90
19862;DHT22;10093;48.148;8.542;2024-01-30T11:05:50;12.30;99.90
19862;DHT22;10093;48.148;8.542;2024-01-30T11:08:25;12.00;99.90
19862;DHT22;10093;48.148;8.542;2024-01-30T11:10:58;11.90;99.90
19862;DHT22;10093;48.148;8.542;2024-01-30T11:13:30;12.00;99.90
19862;DHT22;10093;48.148;8.542;2024-01-30T11:16:00;11.80;99.90
19862;DHT22;10093;48.148;8.542;2024-01-30T11:18:29;11.90;99.90
19862;DHT22;10093;48.148;8.542;2024-01-30T11:20:59;12.10;99.90
19862;DHT22;10093;48.148;8.542;2024-01-30T11:23:27;12.30;99.90
19862;DHT22;10093;48.148;8.542;2024-01-30T11:25:54;11.50;99.90
19862;DHT22;10093;48.148;8.542;2024-01-30T11:28:21;11.80;99.90
19862;DHT22;10093;48.148;8.542;2024-01-30T11:30:47;12.60;99.90
19862;DHT22;10093;48.148;8.542;2024-01-30T11:33:27;12.90;99.90
19862;DHT22;10093;48.148;8.542;2024-01-30T11:35:52;13.10;99.90
19862;DHT22;10093;48.148;8.542;2024-01-30T11:38:18;12.80;99.90
19862;DHT22;10093;48.148;8.542;2024-01-30T11:40:44;12.40;99.90
19862;DHT22;10093;48.148;8.542;2024-01-30T11:43:10;12.50;99.90
19862;DHT22;10093;48.148;8.542;2024-01-30T11:45:37;12.10;99.90
19862;DHT22;10093;48.148;8.542;2024-01-30T11:48:03;11.90;99.90
19862;DHT22;10093;48.148;8.542;2024-01-30T11:50:38;11.80;99.90
19862;DHT22;10093;48.148;8.542;2024-01-30T11:53:04;12.10;99.90
19862;DHT22;10093;48.148;8.542;2024-01-30T11:55:30;12.40;99.90
19862;DHT22;10093;48.148;8.542;2024-01-30T11:57:57;12.90;99.90
19862;DHT22;10093;48.148;8.542;2024-01-30T12:00:23;13.20;99.90
19862;DHT22;10093;48.148;8.542;2024-01-30T12:02:50;13.80;99.90
19862;DHT22;10093;48.148;8.542;2024-01-30T12:05:16;14.20;99.90
19862;DHT22;10093;48.148;8.542;2024-01-30T12:07:44;14.00;99.90
19862;DHT22;10093;48.148;8.542;2024-01-30T12:10:11;13.50;99.90
19862;DHT22;10093;48.148;8.542;2024-01-30T12:12:40;13.10;99.90
19862;DHT22;10093;48.148;8.542;2024-01-30T12:15:07;12.70;99.90
19862;DHT22;10093;48.148;8.542;2024-01-30T12:17:33;12.40;99.90
19862;DHT22;10093;48.148;8.542;2024-01-30T12:20:06;12.30;99.90
19862;DHT22;10093;48.148;8.542;2024-01-30T12:22:40;12.20;99.90
19862;DHT22;10093;48.148;8.542;2024-01-30T12:25:16;12.30;99.90
19862;DHT22;10093;48.148;8.542;2024-01-30T12:27:43;12.40;99.90
19862;DHT22;10093;48.148;8.542;2024-01-30T12:30:11;12.70;99.90
19862;DHT22;10093;48.148;8.542;2024-01-30T12:32:43;13.30;99.90
19862;DHT22;10093;48.148;8.542;2024-01-30T12:37:42;13.90;99.90
19862;DHT22;10093;48.148;8.542;2024-01-30T12:40:09;13.80;99.90
19862;DHT22;10093;48.148;8.542;2024-01-30T12:42:35;13.60;99.90
19862;DHT22;10093;48.148;8.542;2024-01-30T12:45:04;13.70;99.90
19862;DHT22;10093;48.148;8.542;2024-01-30T12:47:31;14.00;99.90
19862;DHT22;10093;48.148;8.542;2024-01-30T12:49:57;14.10;99.90
19862;DHT22;10093;48.148;8.542;2024-01-30T12:52:23;14.20;99.90
19862;DHT22;10093;48.148;8.542;2024-01-30T12:54:49;14.30;99.90
19862;DHT22;10093;48.148;8.542;2024-01-30T12:57:15;14.70;99.90
19862;DHT22;10093;48.148;8.542;2024-01-30T12:59:42;15.20;99.90
19862;DHT22;10093;48.148;8.542;2024-01-30T13:02:07;16.10;99.90
19862;DHT22;10093;48.148;8.542;2024-01-30T13:04:33;16.80;99.90
19862;DHT22;10093;48.148;8.542;2024-01-30T13:06:59;17.30;99.90
19862;DHT22;10093;48.148;8.542;2024-01-30T13:09:26;17.30;99.90
19862;DHT22;10093;48.148;8.542;2024-01-30T13:11:52;16.90;99.90
19862;DHT22;10093;48.148;8.542;2024-01-30T13:14:18;16.10;99.90
19862;DHT22;10093;48.148;8.542;2024-01-30T13:16:44;15.20;99.90
19862;DHT22;10093;48.148;8.542;2024-01-30T13:19:10;14.90;99.90
19862;DHT22;10093;48.148;8.542;2024-01-30T13:21:35;15.20;99.90
19862;DHT22;10093;48.148;8.542;2024-01-30T13:24:01;15.10;99.90
19862;DHT22;10093;48.148;8.542;2024-01-30T13:26:27;15.60;99.90
19862;DHT22;10093;48.148;8.542;2024-01-30T13:28:52;15.50;99.90
19862;DHT22;10093;48.148;8.542;2024-01-30T13:31:18;15.40;99.90
19862;DHT22;10093;48.148;8.542;2024-01-30T13:33:45;15.50;99.90
19862;DHT22;10093;48.148;8.542;2024-01-30T13:36:11;15.30;99.90
19862;DHT22;10093;48.148;8.542;2024-01-30T13:38:37;15.80;99.90
19862;DHT22;10093;48.148;8.542;2024-01-30T13:41:03;14.10;99.90
19862;DHT22;10093;48.148;8.542;2024-01-30T13:43:29;13.60;99.90
19862;DHT22;10093;48.148;8.542;2024-01-30T13:45:55;14.20;99.90
19862;DHT22;10093;48.148;8.542;2024-01-30T13:48:20;15.40;99.90
19862;DHT22;10093;48.148;8.542;2024-01-30T13:50:47;14.30;99.90
19862;DHT22;10093;48.148;8.542;2024-01-30T13:53:13;14.00;99.90
19862;DHT22;10093;48.148;8.542;2024-01-30T13:55:38;14.10;99.90
19862;DHT22;10093;48.148;8.542;2024-01-30T13:58:07;13.30;99.90
19862;DHT22;10093;48.148;8.542;2024-01-30T14:00:33;11.70;99.90
19862;DHT22;10093;48.148;8.542;2024-01-30T14:02:59;11.00;99.90
19862;DHT22;10093;48.148;8.542;2024-01-30T14:05:25;11.00;99.90
19862;DHT22;10093;48.148;8.542;2024-01-30T14:07:51;11.10;99.90
19862;DHT22;10093;48.148;8.542;2024-01-30T14:10:17;10.90;99.90
19862;DHT22;10093;48.148;8.542;2024-01-30T14:12:43;11.10;99.90
19862;DHT22;10093;48.148;8.542;2024-01-30T14:15:10;11.30;99.90
19862;DHT22;10093;48.148;8.542;2024-01-30T14:17:36;11.20;99.90
19862;DHT22;10093;48.148;8.542;2024-01-30T14:20:03;11.20;99.90
19862;DHT22;10093;48.148;8.542;2024-01-30T14:22:30;11.20;99.90
19862;DHT22;10093;48.148;8.542;2024-01-30T14:24:55;11.20;99.90
19862;DHT22;10093;48.148;8.542;2024-01-30T14:27:21;11.50;99.90
19862;DHT22;10093;48.148;8.542;2024-01-30T14:29:47;11.70;99.90
19862;DHT22;10093;48.148;8.542;2024-01-30T14:32:13;11.50;99.90
19862;DHT22;10093;48.148;8.542;2024-01-30T14:34:38;11.10;99.90
19862;DHT22;10093;48.148;8.542;2024-01-30T14:37:04;10.80;99.90
19862;DHT22;10093;48.148;8.542;2024-01-30T14:39:30;10.80;99.90
19862;DHT22;10093;48.148;8.542;2024-01-30T14:41:56;10.60;99.90
19862;DHT22;10093;48.148;8.542;2024-01-30T14:44:21;10.70;99.90
19862;DHT22;10093;48.148;8.542;2024-01-30T14:46:48;10.70;99.90
19862;DHT22;10093;48.148;8.542;2024-01-30T14:49:14;10.70;99.90
19862;DHT22;10093;48.148;8.542;2024-01-30T14:51:41;10.60;99.90
19862;DHT22;10093;48.148;8.542;2024-01-30T14:54:06;10.50;99.90
19862;DHT22;10093;48.148;8.542;2024-01-30T14:56:32;10.40;99.90
19862;DHT22;10093;48.148;8.542;2024-01-30T14:58:58;10.20;99.90
19862;DHT22;10093;48.148;8.542;2024-01-30T15:01:24;10.20;99.90
19862;DHT22;10093;48.148;8.542;2024-01-30T15:03:49;10.30;99.90
19862;DHT22;10093;48.148;8.542;2024-01-30T15:06:17;10.30;99.90
19862;DHT22;10093;48.148;8.542;2024-01-30T15:08:43;10.30;99.90
19862;DHT22;10093;48.148;8.542;2024-01-30T15:11:08;10.30;99.90
19862;DHT22;10093;48.148;8.542;2024-01-30T15:13:34;10.20;99.90
19862;DHT22;10093;48.148;8.542;2024-01-30T15:16:00;10.10;99.90
19862;DHT22;10093;48.148;8.542;2024-01-30T15:18:28;10.10;99.90
19862;DHT22;10093;48.148;8.542;2024-01-30T15:20:54;9.90;99.90
19862;DHT22;10093;48.148;8.542;2024-01-30T15:23:19;9.70;99.90
19862;DHT22;10093;48.148;8.542;2024-01-30T15:25:45;9.70;99.90
19862;DHT22;10093;48.148;8.542;2024-01-30T15:28:10;9.60;99.90
19862;DHT22;10093;48.148;8.542;2024-01-30T15:30:36;9.50;99.90
19862;DHT22;10093;48.148;8.542;2024-01-30T15:33:02;9.50;99.90